【ウィンドシア】


「ウィンドシア」によるTwitter検索の結果から選別して表示しています。)



どこかで天気が悪くなると呟く何か @metbot_jp2017-12-15 12:41:29
RCSS/TSA:台北松山(台湾)
ウィンドシア
150330Z 11016G26KT 9999 FEW018 BKN028 23/17 Q1018 WS R10 NOSIG RMK A3006
150328Z 11017KT 9999 FEW018 BKN028 23/17 …

どこかで天気が悪くなると呟く何か @metbot_jp 2017-12-15 10:21:17
RCTP/TPE:台湾桃園(台湾)
ウィンドシア
150115Z 08017KT 9999 FEW020 SCT150 23/17 Q1018 WS R05R NOSIG RMK A3007

どこかで天気が悪くなると呟く何か @metbot_jp 2017-12-14 18:11:31
RCTP/TPE:台湾桃園(台湾)
ウィンドシア
140900Z 06016KT 9999 FEW015 SCT080 20/15 Q1018 WS R05R NOSIG RMK A3007

どこかで天気が悪くなると呟く何か @metbot_jp 2017-12-14 17:11:29
RCTP/TPE:台湾桃園(台湾)
ウィンドシア
140806Z 06016KT 9999 FEW015 BKN025 BKN040 21/15 Q1018 WS R05R NOSIG RMK A3006

どこかで天気が悪くなると呟く何か @metbot_jp 2017-12-14 15:11:25
RCTP/TPE:台湾桃園(台湾)
ウィンドシア
140600Z 05019KT 9999 FEW015 BKN025 BKN040 21/16 Q1018 WS R05R NOSIG RMK A3006

どこかで天気が悪くなると呟く何か @metbot_jp 2017-12-14 14:11:23
RCTP/TPE:台湾桃園(台湾)
ウィンドシア
140500Z 06021KT 9999 FEW015 BKN025 BKN090 22/16 Q1018 WS ALL RWY NOSIG RMK A3006

どこかで天気が悪くなると呟く何か @metbot_jp 2017-12-14 12:46:20
RCTP/TPE:台湾桃園(台湾)
ウィンドシア
140333Z 06022KT 9999 FEW015 BKN025 23/16 Q1019 WS R05L NOSIG RMK A3009

どこかで天気が悪くなると呟く何か @metbot_jp 2017-12-14 12:16:20
RCSS/TSA:台北松山(台湾)
ウィンドシア
140309Z 09018KT 9999 FEW020 BKN042 21/16 Q1020 WS R10 NOSIG RMK A3013

どこかで天気が悪くなると呟く何か @metbot_jp 2017-12-14 11:11:18
RJSN/KIJ:新潟(日本)
ウィンドシア
140200Z 27013KT 9999 VCSH FEW010 SCT020 BKN030 06/00 Q1023 WS R28

どこかで天気が悪くなると呟く何か @metbot_jp 2017-12-14 10:41:18
RCTP/TPE:台湾桃園(台湾)
ウィンドシア
140130Z 07019KT 9999 FEW020 SCT090 21/16 Q1020 WS R05R NOSIG RMK A3012

どこかで天気が悪くなると呟く何か @metbot_jp 2017-12-14 08:31:39
RCTP/TPE:台湾桃園(台湾)
ウィンドシア
132326Z 06016KT 9999 FEW015 SCT090 18/15 Q1019 WS R05R NOSIG RMK A3011

どこかで天気が悪くなると呟く何か @metbot_jp 2017-12-14 04:21:32
RCTP/TPE:台湾桃園(台湾)
ウィンドシア
131914Z 07019KT 9999 FEW015 BKN150 17/14 Q1018 WS R05L NOSIG RMK A3007

どこかで天気が悪くなると呟く何か @metbot_jp 2017-12-13 22:16:22
RCTP/TPE:台湾桃園(台湾)
ウィンドシア
131300Z 06016KT 9999 FEW012 BKN020 BKN035 17/14 Q1021 WS ALL RWY NOSIG RMK A3016

どこかで天気が悪くなると呟く何か @metbot_jp 2017-12-13 20:41:22
RCTP/TPE:台湾桃園(台湾)
ウィンドシア
131130Z 05022KT 9999 SCT010 BKN025 17/15 Q1021 WS ALL RWY NOSIG RMK A3015

虹川 F650GS TWIN @quartet88 2017-12-13 20:03:36
FSXで風速36kt、ウィンドシア最大にしてヘリポートにヘリを着陸させる練習 https://t.co/hh7zShx6yF

どこかで天気が悪くなると呟く何か @metbot_jp 2017-12-13 19:41:18
RCTP/TPE:台湾桃園(台湾)
ウィンドシア
131030Z 05024KT 9999 -DZ FEW010 BKN022 16/15 Q1020 WS ALL RWY NOSIG RMK A3014

どこかで天気が悪くなると呟く何か @metbot_jp 2017-12-13 18:11:33
RCTP/TPE:台湾桃園(台湾)
ウィンドシア
130900Z 05022KT 9999 FEW012 BKN018 BKN030 17/15 Q1019 WS ALL RWY NOSIG RMK A3010

どこかで天気が悪くなると呟く何か @metbot_jp 2017-12-13 17:31:32
RCSS/TSA:台北松山(台湾)
ウィンドシア
130821Z 10019G29KT 8000 -DZ FEW007 BKN022 BKN060 17/16 Q1019 WS R10 NOSIG RMK A3010

どこかで天気が悪くなると呟く何か @metbot_jp 2017-12-13 17:11:40
RJFR/KKJ:北九州(日本・福岡県)
ウィンドシア
130800Z 33014KT 9999 BKN045 04/M07 Q1025 WS R36

どこかで天気が悪くなると呟く何か @metbot_jp 2017-12-13 16:41:41
RCTP/TPE:台湾桃園(台湾)
ウィンドシア
130730Z 05022KT 9999 FEW015 BKN022 BKN100 19/16 Q1018 WS ALL RWY NOSIG RMK A3007

どこかで天気が悪くなると呟く何か @metbot_jp 2017-12-13 15:41:28
RCTP/TPE:台湾桃園(台湾)
ウィンドシア
130630Z 06021KT 9999 FEW012 BKN022 BKN100 20/15 Q1018 WS ALL RWY NOSIG RMK A3007

どこかで天気が悪くなると呟く何か @metbot_jp 2017-12-13 14:56:26
RCSS/TSA:台北松山(台湾)
ウィンドシア
130544Z 09015KT 9999 -DZ FEW007 BKN025 BKN100 18/16 Q1019 WS R10 NOSIG RMK A3010

どこかで天気が悪くなると呟く何か @metbot_jp 2017-12-13 14:41:25
RCTP/TPE:台湾桃園(台湾)
ウィンドシア
130530Z 08023KT 9999 FEW012 BKN022 BKN100 20/15 Q1018 WS ALL RWY NOSIG RMK A3008

どこかで天気が悪くなると呟く何か @metbot_jp 2017-12-13 13:41:24
RCTP/TPE:台湾桃園(台湾)
ウィンドシア
130430Z 07021KT 9999 FEW012 BKN025 BKN040 20/15 Q1019 WS ALL RWY NOSIG RMK A3010

どこかで天気が悪くなると呟く何か @metbot_jp 2017-12-13 12:51:21
RCSS/TSA:台北松山(台湾)
ウィンドシア
130343Z 09018KT 8000 -DZ FEW007 BKN020 BKN100 19/16 Q1020 WS R10 NOSIG RMK A3014

どこかで天気が悪くなると呟く何か @metbot_jp 2017-12-13 12:41:22
RCTP/TPE:台湾桃園(台湾)
ウィンドシア
130330Z 05021KT 9999 FEW012 BKN022 BKN040 19/16 Q1020 WS ALL RWY NOSIG RMK A3012

どこかで天気が悪くなると呟く何か @metbot_jp 2017-12-13 11:41:19
RCTP/TPE:台湾桃園(台湾)
ウィンドシア
130230Z 05025KT 9999 FEW012 BKN022 BKN030 19/16 Q1020 WS ALL RWY NOSIG RMK A3013

どこかで天気が悪くなると呟く何か @metbot_jp 2017-12-13 10:41:17
RCTP/TPE:台湾桃園(台湾)
ウィンドシア
130130Z 05024KT 9999 SCT011 BKN018 BKN030 18/16 Q1021 WS ALL RWY NOSIG RMK A3015

どこかで天気が悪くなると呟く何か @metbot_jp 2017-12-13 09:36:17
RCTP/TPE:台湾桃園(台湾)
ウィンドシア
130023Z 05022KT 9999 FEW009 BKN012 BKN018 18/17 Q1020 WS ALL RWY NOSIG RMK A3013

どこかで天気が悪くなると呟く何か @metbot_jp 2017-12-13 09:06:37
RJAA/NRT:東京/成田(日本)
ウィンドシア
130000Z 30006KT 9999 FEW030 05/M06 Q1014 WS R34R NOSIG RMK 1CU030 A2996

どこかで天気が悪くなると呟く何か @metbot_jp 2017-12-13 08:21:38
RCTP/TPE:台湾桃園(台湾)
ウィンドシア
122317Z 05020KT 9999 FEW018 BKN020 BKN045 18/17 Q1020 WS R05L NOSIG RMK A3012

ヴぃお @Vio_Of_The_Fool 2017-12-12 22:20:47
コボルドのカードのフレーバー見て回ってて気づいたのが、シャーマンがレジェンドとウィンドシア以外ゴールデンあるってこと 1枚だけってのも多いが。

どこかで天気が悪くなると呟く何か @metbot_jp 2017-12-12 20:46:22
RCTP/TPE:台湾桃園(台湾)
ウィンドシア
121138Z 05021G32KT 9999 -DZ FEW012 SCT017 BKN023 17/16 Q1020 WS ALL RWY NOSIG RMK A3013

スポンサーリンク

どこかで天気が悪くなると呟く何か @metbot_jp 2017-12-12 16:36:31
RJSK/AXT:秋田(日本)
ウィンドシア
120728Z 28024KT 9999 -SHSN FEW005 SCT020 BKN040 M00/M06 Q1008 WS R28 RMK 1ST005 3CU020 5CU040 A2979

どこかで天気が悪くなると呟く何か @metbot_jp 2017-12-11 22:04:02
RJAA/NRT:東京/成田(日本)
ウィンドシア
111254Z 24015G30KT 210V280 9999 FEW030 10/00 Q1003 WS R34R RMK 1CU030 A2963

どこかで天気が悪くなると呟く何か @metbot_jp 2017-12-11 16:11:30
RJAA/NRT:東京/成田(日本)
ウィンドシア
110700Z 22012KT 9999 FEW030 14/02 Q1000 WS R16L NOSIG

どこかで天気が悪くなると呟く何か @metbot_jp 2017-12-11 15:06:27
RJAA/NRT:東京/成田(日本)
ウィンドシア
110600Z 23011KT 9999 FEW030 16/01 Q1000 WS R16L NOSIG RMK 1CU030 A2955

どこかで天気が悪くなると呟く何か @metbot_jp 2017-12-11 13:44:01
RJAA/NRT:東京/成田(日本)
ウィンドシア
110430Z 23015KT 9999 FEW030 17/M00 Q1000 WS R16L NOSIG RMK 1CU030 A2955

どこかで天気が悪くなると呟く何か @metbot_jp 2017-12-11 13:11:23
RJTT/HND:東京/羽田(日本)
ウィンドシア
110400Z 23007G20KT 190V260 9999 FEW030 18/01 Q1000 WS R23 BECMG 22020KT RMK 1CU030 A2954

どこかで天気が悪くなると呟く何か @metbot_jp 2017-12-11 12:11:22
RJAA/NRT:東京/成田(日本)
ウィンドシア
110300Z 24014G26KT 210V290 9999 FEW030 16/02 Q1001 WS R34L BECMG 23014KT RMK 1CU030 A2958

どこかで天気が悪くなると呟く何か @metbot_jp 2017-12-11 11:56:19
RCTP/TPE:台湾桃園(台湾)
ウィンドシア
110250Z 05023KT 9999 FEW015 BKN042 18/11 Q1020 WS R05L NOSIG RMK A3014

どこかで天気が悪くなると呟く何か @metbot_jp 2017-12-11 11:41:22
RJFF/FUK:福岡(日本)
ウィンドシア
110230Z 29015KT 9999 FEW030 SCT040 BKN050 07/M04 Q1019 WS R34

どこかで天気が悪くなると呟く何か @metbot_jp 2017-12-11 07:51:32
RCTP/TPE:台湾桃園(台湾)
ウィンドシア
102244Z 05019G29KT 9999 FEW015 BKN040 BKN060 17/11 Q1020 WS R05L NOSIG RMK A3014

スピード狂@スピードはドラッグ @Vappspeed135kt 2017-12-11 07:32:21
しかし今更ながら思うけど、FDX80 着陸失敗事故から8年も経過してるのか・・・・

ポーポイズ現象 、台風 ウィンドシア なんで着陸を強行したのかな

どこかで天気が悪くなると呟く何か @metbot_jp 2017-12-09 13:41:20
RCTP/TPE:台湾桃園(台湾)
ウィンドシア
090430Z 05008KT 9999 -RA FEW006 BKN012 BKN030 16/15 Q1019 WS ALL RWY NOSIG RMK A3009

どこかで天気が悪くなると呟く何か @metbot_jp 2017-12-09 12:26:17
RCTP/TPE:台湾桃園(台湾)
ウィンドシア
090315Z 06004KT 6000 -RA FEW008 BKN015 BKN030 15/14 Q1020 WS R05L NOSIG RMK A3012

どこかで天気が悪くなると呟く何か @metbot_jp 2017-12-09 05:41:38
RCTP/TPE:台湾桃園(台湾)
ウィンドシア
082030Z 07017KT 9999 -RA FEW020 BKN040 BKN070 14/10 Q1020 WS ALL RWY NOSIG RMK A3013

どこかで天気が悪くなると呟く何か @metbot_jp 2017-12-09 04:11:38
RCTP/TPE:台湾桃園(台湾)
ウィンドシア
081900Z 06018KT 9999 -RA FEW020 BKN040 BKN070 14/10 Q1020 WS ALL RWY NOSIG RMK A3014

どこかで天気が悪くなると呟く何か @metbot_jp 2017-12-09 03:11:30
RCTP/TPE:台湾桃園(台湾)
ウィンドシア
081800Z 06017KT 9999 -RA FEW020 BKN040 BKN070 14/10 Q1021 WS ALL RWY NOSIG RMK A3016

どこかで天気が悪くなると呟く何か @metbot_jp 2017-12-09 02:06:27
RCTP/TPE:台湾桃園(台湾)
ウィンドシア
081701Z 07014KT 9999 -RA FEW015 BKN040 BKN070 14/10 Q1021 WS R05L NOSIG RMK A3017

どこかで天気が悪くなると呟く何か @metbot_jp 2017-12-09 00:11:26
RCTP/TPE:台湾桃園(台湾)
ウィンドシア
081500Z 08012KT 9999 FEW020 BKN040 BKN070 15/09 Q1022 WS ALL RWY NOSIG RMK A3019

どこかで天気が悪くなると呟く何か @metbot_jp 2017-12-08 23:11:24
RCTP/TPE:台湾桃園(台湾)
ウィンドシア
081404Z 06017KT 9999 -DZ FEW020 BKN035 BKN060 15/09 Q1022 WS R05L NOSIG RMK A3019

どこかで天気が悪くなると呟く何か @metbot_jp 2017-12-08 22:06:24
RCTP/TPE:台湾桃園(台湾)
ウィンドシア
081259Z 06018KT 9999 FEW020 BKN040 BKN070 15/09 Q1023 WS R05L NOSIG RMK A3021

どこかで天気が悪くなると呟く何か @metbot_jp 2017-12-08 21:39:02
RJAA/NRT:東京/成田(日本)
中程度の乱気流・ウィンドシア
081230Z 35018KT 8000 -SHRA FEW005 BKN008 03/02 Q1009 WS R34L TEMPO 4000 -SHRASN BR RMK 1ST005 7ST008 A298…

どこかで天気が悪くなると呟く何か @metbot_jp 2017-12-08 20:41:19
RCTP/TPE:台湾桃園(台湾)
ウィンドシア
081130Z 06019KT 9999 FEW020 BKN040 BKN070 15/08 Q1023 WS ALL RWY NOSIG RMK A3022

どこかで天気が悪くなると呟く何か @metbot_jp 2017-12-08 20:26:19
RJAA/NRT:東京/成田(日本)
ウィンドシア
081112Z 35019KT 9999 -SHRA FEW005 SCT009 BKN020 04/03 Q1007 WS R34R RMK 1ST005 4ST009 7CU020 A2976

どこかで天気が悪くなると呟く何か @metbot_jp 2017-12-08 19:41:16
RCTP/TPE:台湾桃園(台湾)
ウィンドシア
081030Z 05018KT 9999 FEW020 BKN035 BKN050 15/08 Q1022 WS ALL RWY NOSIG RMK A3020

どこかで天気が悪くなると呟く何か @metbot_jp 2017-12-08 18:21:34
RCTP/TPE:台湾桃園(台湾)
ウィンドシア
080916Z 03017G27KT 9999 FEW020 BKN030 BKN050 14/09 Q1022 WS ALL RWY NOSIG RMK A3020

どこかで天気が悪くなると呟く何か @metbot_jp 2017-12-08 16:41:32
RCTP/TPE:台湾桃園(台湾)
ウィンドシア
080730Z 03021KT 9999 FEW020 SCT035 BKN060 14/09 Q1021 WS ALL RWY NOSIG RMK A3017

どこかで天気が悪くなると呟く何か @metbot_jp 2017-12-08 15:16:29
RCTP/TPE:台湾桃園(台湾)
ウィンドシア
080600Z 03021KT 9999 FEW020 SCT035 BKN060 15/09 Q1021 WS ALL RWY NOSIG RMK A3017

どこかで天気が悪くなると呟く何か @metbot_jp 2017-12-08 14:11:26
RCTP/TPE:台湾桃園(台湾)
ウィンドシア
080505Z 03020KT 6000 FEW020 SCT035 BKN060 15/09 Q1021 WS R05L NOSIG RMK A3017

どこかで天気が悪くなると呟く何か @metbot_jp 2017-12-08 12:41:21
RCSS/TSA:台北松山(台湾)
ウィンドシア
080330Z 06009KT 010V110 6000 FEW018 BKN030 BKN050 16/08 Q1022 WS R10 NOSIG RMK A3020

どこかで天気が悪くなると呟く何か @metbot_jp 2017-12-08 11:41:19
RCSS/TSA:台北松山(台湾)
ウィンドシア
080234Z VRB06G16KT 6000 FEW018 BKN035 BKN050 16/08 Q1023 WS R10 NOSIG RMK A3022

どこかで天気が悪くなると呟く何か @metbot_jp 2017-12-08 10:51:19
RCTP/TPE:台湾桃園(台湾)
ウィンドシア
080143Z 04020KT 8000 FEW018 SCT030 BKN060 15/09 Q1024 WS R05L NOSIG RMK A3026

どこかで天気が悪くなると呟く何か @metbot_jp 2017-12-08 09:51:17
RCTP/TPE:台湾桃園(台湾)
ウィンドシア
080041Z 03021KT 9000 FEW015 SCT030 BKN080 15/09 Q1024 WS ALL RWY NOSIG RMK A3026

どこかで天気が悪くなると呟く何か @metbot_jp 2017-12-08 08:11:34
RCTP/TPE:台湾桃園(台湾)
ウィンドシア
072300Z 03021KT 7000 -RA FEW015 SCT025 BKN035 15/10 Q1023 WS ALL RWY NOSIG RMK A3022 RA AMT 0.2MM

スポンサーリンク

どこかで天気が悪くなると呟く何か @metbot_jp 2017-12-08 07:11:31
RCTP/TPE:台湾桃園(台湾)
ウィンドシア
072205Z 04018KT 6000 FEW015 SCT025 BKN040 15/12 Q1023 WS ALL RWY NOSIG RMK A3021
072203Z 04018KT 6000 FEW015 SCT02…

どこかで天気が悪くなると呟く何か @metbot_jp 2017-12-08 04:11:34
RCTP/TPE:台湾桃園(台湾)
ウィンドシア
071900Z 02015G25KT 9999 -RA FEW006 BKN010 BKN040 15/12 Q1022 WS ALL RWY NOSIG RMK A3020 RA AMT 0.6MM

どこかで天気が悪くなると呟く何か @metbot_jp 2017-12-08 03:06:27
RCTP/TPE:台湾桃園(台湾)
ウィンドシア
071801Z 03017G27KT 5000 -RA FEW005 BKN010 BKN040 15/14 Q1021 WS ALL RWY NOSIG RMK A3016

どこかで天気が悪くなると呟く何か @metbot_jp 2017-12-08 01:56:27
RCTP/TPE:台湾桃園(台湾)
ウィンドシア
071650Z 02016G26KT 6000 -RA FEW008 BKN015 BKN040 15/14 Q1021 WS ALL RWY NOSIG RMK A3015

どこかで天気が悪くなると呟く何か @metbot_jp 2017-12-07 20:11:21
RJSN/KIJ:新潟(日本)
ウィンドシア
071100Z 18009KT 9999 -SHRA FEW020 BKN030 BKN040 06/04 Q1014 WS R10

どこかで天気が悪くなると呟く何か @metbot_jp 2017-12-06 13:26:23
RCKH/KHH:高雄(台湾)
ウィンドシア
060420Z 33009KT 280V020 8000 FEW018 SCT042 BKN120 25/13 Q1016 WS R09 NOSIG RMK A3001

どこかで天気が悪くなると呟く何か @metbot_jp 2017-12-06 00:56:34
RCTP/TPE:台湾桃園(台湾)
ウィンドシア
051551Z 06012KT 9999 FEW015 BKN040 BKN060 16/10 Q1020 WS R05R NOSIG RMK A3012

つよいフグ @delvershine 2017-12-05 22:12:54
skyrimでのガンブレード(砲撃形態と近接形態を持つ武器の作り方はおおざっぱに二つあって)
1 普通の剣と杖で同モデルの武器を用意しパワーで赤鷲武器のようにインベントリ内で入れ替える
2 ウィンドシアの応用でガード時に杖のモーションを読み込んで射撃させる
があって1が圧倒的に楽

どこかで天気が悪くなると呟く何か @metbot_jp 2017-12-05 08:31:35
RCTP/TPE:台湾桃園(台湾)
ウィンドシア
042323Z 04017KT 9999 -RA FEW008 BKN035 BKN050 16/11 Q1024 WS R05L NOSIG RMK A3024

どこかで天気が悪くなると呟く何か @metbot_jp 2017-12-05 06:56:31
RCTP/TPE:台湾桃園(台湾)
ウィンドシア
042146Z 04017KT 9999 FEW015 BKN035 17/11 Q1022 WS R05R NOSIG RMK A3020

どこかで天気が悪くなると呟く何か @metbot_jp 2017-12-05 03:51:29
RCTP/TPE:台湾桃園(台湾)
ウィンドシア
041845Z 04019KT 9999 FEW015 BKN040 18/11 Q1021 WS R05R NOSIG RMK A3015

どこかで天気が悪くなると呟く何か @metbot_jp 2017-12-05 02:41:29
ROAH/OKA:那覇(日本・沖縄本島)
ウィンドシア
041730Z 02022KT 9999 FEW035 BKN050 19/09 Q1017 WS R36 RMK 1SC035 5SC050 A3003

どこかで天気が悪くなると呟く何か @metbot_jp 2017-12-05 02:41:28
RCTP/TPE:台湾桃園(台湾)
ウィンドシア
041730Z 04020KT 9999 FEW015 BKN035 BKN045 18/12 Q1021 WS ALL RWY NOSIG RMK A3015

どこかで天気が悪くなると呟く何か @metbot_jp 2017-12-05 01:11:28
RCTP/TPE:台湾桃園(台湾)
ウィンドシア
041603Z 05021KT 9999 FEW015 SCT035 BKN040 18/12 Q1020 WS R05R NOSIG RMK A3013

どこかで天気が悪くなると呟く何か @metbot_jp 2017-12-04 21:46:22
RCTP/TPE:台湾桃園(台湾)
ウィンドシア
041239Z 05024KT 9999 FEW015 SCT035 BKN050 18/12 Q1020 WS R05R NOSIG RMK A3013

どこかで天気が悪くなると呟く何か @metbot_jp 2017-12-04 20:16:20
RCTP/TPE:台湾桃園(台湾)
ウィンドシア
041100Z 04026KT 7000 FEW015 BKN030 BKN050 18/14 Q1020 WS ALL RWY NOSIG RMK A3013

どこかで天気が悪くなると呟く何か @metbot_jp 2017-12-04 19:11:17
RCSS/TSA:台北松山(台湾)
ウィンドシア
041000Z 06009KT 010V100 9999 FEW018 BKN030 BKN050 19/12 Q1019 WS R10 NOSIG RMK A3011

どこかで天気が悪くなると呟く何か @metbot_jp 2017-12-04 17:26:36
RCTP/TPE:台湾桃園(台湾)
ウィンドシア
040817Z 04021KT 7000 FEW015 BKN025 BKN040 19/15 Q1019 WS R05R NOSIG RMK A3009

どこかで天気が悪くなると呟く何か @metbot_jp 2017-12-02 21:56:19
RCTP/TPE:台湾桃園(台湾)
ウィンドシア
021248Z 05020KT 9999 FEW006 BKN008 BKN015 20/19 Q1019 WS ALL RWY NOSIG RMK A3009

お寿司たべたい🍣🍣🍣 @1967456 2017-12-02 14:42:41
後ろにいるトゥースとウィンドシアがかわいい

どこかで天気が悪くなると呟く何か @metbot_jp 2017-12-02 08:41:29
RCTP/TPE:台湾桃園(台湾)
ウィンドシア
012330Z 05022KT 9999 -DZ FEW006 BKN009 BKN018 18/17 Q1021 WS ALL RWY NOSIG RMK A3016

どこかで天気が悪くなると呟く何か @metbot_jp 2017-12-02 07:26:27
RCTP/TPE:台湾桃園(台湾)
ウィンドシア
012218Z 05022KT 9999 -DZ FEW006 BKN010 BKN025 18/17 Q1020 WS ALL RWY NOSIG RMK A3014

どこかで天気が悪くなると呟く何か @metbot_jp 2017-12-02 06:11:29
RCTP/TPE:台湾桃園(台湾)
ウィンドシア
012100Z 05023KT 9999 FEW006 BKN012 BKN025 18/17 Q1020 WS ALL RWY NOSIG RMK A3012

どこかで天気が悪くなると呟く何か @metbot_jp 2017-12-02 04:41:34
RCTP/TPE:台湾桃園(台湾)
ウィンドシア
011930Z 05023KT 9999 FEW006 BKN010 BKN020 18/17 Q1020 WS ALL RWY NOSIG RMK A3012

どこかで天気が悪くなると呟く何か @metbot_jp 2017-12-02 03:41:28
RCTP/TPE:台湾桃園(台湾)
ウィンドシア
011830Z 05024KT 9999 FEW006 BKN010 BKN020 19/17 Q1020 WS ALL RWY NOSIG RMK A3012

どこかで天気が悪くなると呟く何か @metbot_jp 2017-12-02 02:11:28
ROAH/OKA:那覇(日本・沖縄本島)
ウィンドシア
011700Z 04013KT 9999 -RA FEW013 BKN050 BKN100 17/14 Q1021 RMK 1CU013 5SC050 7AC100 A3015 WS 10KT GAIN AND LOSS …

どこかで天気が悪くなると呟く何か @metbot_jp 2017-12-02 02:11:28
RCTP/TPE:台湾桃園(台湾)
ウィンドシア
011700Z 05025KT 9999 FEW006 BKN012 BKN020 19/17 Q1020 WS ALL RWY NOSIG RMK A3013

どこかで天気が悪くなると呟く何か @metbot_jp 2017-12-02 01:11:25
RCTP/TPE:台湾桃園(台湾)
ウィンドシア
011600Z 05024KT 9999 FEW006 BKN012 BKN020 19/17 Q1020 WS ALL RWY NOSIG RMK A3014

どこかで天気が悪くなると呟く何か @metbot_jp 2017-12-02 00:11:25
RCTP/TPE:台湾桃園(台湾)
ウィンドシア
011500Z 05022KT 9999 FEW006 BKN012 BKN020 19/18 Q1021 WS ALL RWY NOSIG RMK A3015

どこかで天気が悪くなると呟く何か @metbot_jp 2017-12-01 23:11:23
RCTP/TPE:台湾桃園(台湾)
ウィンドシア
011400Z 05020KT 9999 FEW006 BKN012 BKN020 19/18 Q1021 WS ALL RWY NOSIG RMK A3017

どこかで天気が悪くなると呟く何か @metbot_jp 2017-12-01 22:11:20
RCTP/TPE:台湾桃園(台湾)
ウィンドシア
011300Z 05026KT 9999 -RA FEW006 BKN009 BKN018 19/18 Q1021 WS ALL RWY NOSIG RMK A3017

どこかで天気が悪くなると呟く何か @metbot_jp 2017-12-01 21:06:18
RCTP/TPE:台湾桃園(台湾)
ウィンドシア
011201Z 05023KT 9999 -RA FEW006 BKN009 BKN018 18/18 Q1021 WS ALL RWY NOSIG RMK A3017

どこかで天気が悪くなると呟く何か @metbot_jp 2017-12-01 20:11:18
ZGSZ/SZX:深圳宝安(中華人民共和国)
ウィンドシア
011100Z 04007MPS 9999 FEW043 21/13 Q1019 WS RWY34 NOSIG

スポンサーリンク

どこかで天気が悪くなると呟く何か @metbot_jp 2017-12-01 19:41:40
RCTP/TPE:台湾桃園(台湾)
ウィンドシア
011030Z 06024KT 9999 FEW006 BKN010 BKN025 19/17 Q1021 WS ALL RWY NOSIG RMK A3015

スポンサーリンク

▼ 関連項目 ▼
赤鷲 / / パワー / ベント / ボル / /

▼このスカイリムったー【ウィンドシア】のページを共有▼

▼ 系列用語集リンク ▼
TES:IV用語集/ TES:V用語集/ Fo3用語集/ FoNV用語集ログ/ 用語集横断検索
スカイリムったー